キング・ハーリド国際空港(リヤド)の過去48時間の天気

キング・ハーリド国際空港(リヤド) (King Khaled International Airport)

現在時刻: 9/23 00:24 +03 (9/22 21:24 UTC) 以下の時間は現地時間です。

過去48時間のMETAR気象情報
時間 風向 風速(m/s) 視程 気温(℃) 湿度(%) 気圧(hPa) 天気現象
23 00:00 北西 1 10km以上 28 23 1010
22 23:00 西北西 2 10km以上 29 23 1010
22 22:00 西北西 2 10km以上 30 22 1010
22 21:00 北北西 2 10km以上 32 20 1010
22 20:00 北東 2 10km以上 34 15 1009
22 19:00 北東 2 10km以上 35 19 1008
22 18:00 東北東 3 8000m 37 14 1008
22 17:00 北東 4 10km以上 38 11 1008
22 16:00 北東 5 10km以上 39 9 1007
22 15:00 北東 5 10km以上 41 6 1008
22 14:00 南南西 5 10km以上 41 5 1008
22 13:00 6 10km以上 41 5 1008
22 12:00 北東 6 10km以上 40 6 1009
22 11:00 北北東 5 10km以上 39 9 1010
22 10:00 北北西 5 10km以上 39 10 1010
22 09:00 北西 5 10km以上 34 11 1011
22 08:00 北北西 2 10km以上 32 16 1011
22 07:00 西 3 10km以上 27 18 1010
22 06:00 西 4 10km以上 26 17 1009
22 05:00 西北西 3 10km以上 25 18 1009
22 04:00 西 3 10km以上 26 17 1009
22 03:00 西北西 3 10km以上 27 16 1008
22 02:00 西北西 2 10km以上 27 18 1008
22 01:00 静穏 0 10km以上 28 27 1009
22 00:00 西北西 2 10km以上 29 22 1009
21 23:00 西北西 2 10km以上 31 17 1009
21 22:00 北西 2 10km以上 33 16 1010
21 21:00 西北西 2 10km以上 33 20 1009
21 20:00 北北西 1 10km以上 34 19 1009
21 19:00 北北東 3 10km以上 37 14 1008
21 18:00 北北東 4 10km以上 39 11 1008
21 17:00 北北東 3 10km以上 40 11 1007
21 16:00 北北西 4 10km以上 42 10 1007
21 15:00 4 10km以上 41 9 1008
21 14:00 北北東 3 10km以上 41 11 1008
21 13:00 2 10km以上 40 16 1009
21 12:00 西 2 10km以上 39 18 1010
21 11:00 西北西 3 10km以上 38 14 1011
21 10:00 北北西 2 10km以上 37 21 1012
21 09:00 北西 2 10km以上 35 18 1012
21 08:00 西北西 3 10km以上 32 20 1012
21 07:00 西 3 10km以上 28 22 1012
21 06:00 西 3 10km以上 26 23 1011
21 05:00 北西 2 10km以上 26 28 1011
21 04:00 北西 2 10km以上 26 28 1011
21 03:00 北西 2 10km以上 27 28 1011
21 02:00 北北西 1 10km以上 28 25 1011
21 01:00 北西 2 10km以上 28 25 1011
OERK 222100Z 31002KT CAVOK 28/05 Q1010 NOSIG
OERK 222000Z 29003KT CAVOK 29/06 Q1010 NOSIG
OERK 221900Z 30003KT CAVOK 30/06 Q1010 NOSIG
OERK 221800Z 33003KT CAVOK 32/06 Q1010 NOSIG
OERK 221700Z 04004KT CAVOK 34/04 Q1009 NOSIG
OERK 221600Z 05003KT CAVOK 35/08 Q1008 NOSIG
OERK 221500Z 07005KT 8000 NSC 37/05 Q1008 NOSIG
OERK 221400Z 05007KT CAVOK 38/03 Q1008 NOSIG
OERK 221300Z 05009KT CAVOK 39/01 Q1007 NOSIG
OERK 221200Z 05009KT CAVOK 41/M04 Q1008 NOSIG
OERK 221100Z 20010KT CAVOK 41/M05 Q1008 NOSIG
OERK 221000Z 36011KT CAVOK 41/M07 Q1008 NOSIG
OERK 220900Z 04012KT CAVOK 40/M04 Q1009 NOSIG
OERK 220800Z 02010KT CAVOK 39/01 Q1010 NOSIG
OERK 220700Z 33009KT CAVOK 39/02 Q1010 NOSIG
OERK 220600Z 31009KT CAVOK 34/00 Q1011 NOSIG
OERK 220500Z 33004KT CAVOK 32/03 Q1011 NOSIG
OERK 220400Z 28006KT CAVOK 27/01 Q1010 NOSIG
OERK 220300Z 28007KT CAVOK 26/M01 Q1009 NOSIG
OERK 220200Z 29006KT CAVOK 25/M01 Q1009 NOSIG
OERK 220100Z 28006KT CAVOK 26/M01 Q1009 NOSIG
OERK 220000Z 29006KT CAVOK 27/M01 Q1008 NOSIG
OERK 212300Z 29004KT CAVOK 27/01 Q1008 NOSIG
OERK 212200Z 00000KT CAVOK 28/07 Q1009 NOSIG
OERK 212100Z 29003KT CAVOK 29/05 Q1009 NOSIG
OERK 212000Z 30004KT CAVOK 31/03 Q1009 NOSIG
OERK 211900Z 31004KT CAVOK 33/04 Q1010 NOSIG
OERK 211800Z 29003KT CAVOK 33/07 Q1009 NOSIG
OERK 211700Z 34002KT CAVOK 34/07 Q1009 NOSIG
OERK 211600Z 02005KT CAVOK 37/05 Q1008 NOSIG
OERK 211500Z 02008KT CAVOK 39/03 Q1008 NOSIG
OERK 211400Z 03006KT CAVOK 40/04 Q1007 NOSIG
OERK 211300Z 34007KT CAVOK 42/04 Q1007 NOSIG
OERK 211200Z 01008KT CAVOK 41/02 Q1008 NOSIG
OERK 211100Z 03005KT CAVOK 41/05 Q1008 NOSIG
OERK 211000Z 08003KT CAVOK 40/09 Q1009 NOSIG
OERK 210900Z 27003KT CAVOK 39/10 Q1010 NOSIG
OERK 210800Z 29005KT CAVOK 38/06 Q1011 NOSIG
OERK 210700Z 33003KT CAVOK 37/11 Q1012 NOSIG
OERK 210600Z 31004KT CAVOK 35/07 Q1012 NOSIG
OERK 210500Z 30005KT CAVOK 32/06 Q1012 NOSIG
OERK 210400Z 28006KT CAVOK 28/04 Q1012 NOSIG
OERK 210300Z 28006KT CAVOK 26/03 Q1011 NOSIG
OERK 210200Z 31003KT CAVOK 26/06 Q1011 NOSIG
OERK 210100Z 31003KT CAVOK 26/06 Q1011 NOSIG
OERK 210000Z 31004KT CAVOK 27/07 Q1011 NOSIG
OERK 202300Z 33002KT CAVOK 28/06 Q1011 NOSIG
OERK 202200Z 31003KT CAVOK 28/06 Q1011 NOSIG